weather.gov     
National Weather Service

Terminal Aerodrome Forecast
NWS Homepage
This page is being discontinued on March 12, 2014.
The same data is available at this site. Please update your bookmarks.
Thank you, and we apologize for the inconvenience.
Please send an email to SR-SRH.Webmaster@noaa.gov with any concerns.


Current Version
Previous Version:    01  02  03  04  05  06  07  08  09  10  11  12  13  14  15  16  17  18  19  20  21  22  23  24  25  
[Printable]
224
FTUS46 KSEW 311700
TAFOLM
TAF
KOLM 311732Z 3118/0118 20008KT P6SM -RA SCT009 BKN060 OVC080
      TEMPO 3118/3121 4SM -RA BR OVC009
     FM312100 22004KT P6SM OVC025
      TEMPO 3121/3124 4SM -SHRA BR OVC025
     FM010000 22003KT P6SM VCSH OVC050
     FM010900 00000KT 2SM BR OVC004=


U.S. Dept. of Commerce
NOAA National Weather Service
1325 East West Highway
Silver Spring, MD 20910
E-mail: w-nws.webmaster@noaa.gov
Page last modified: May 16, 2007
NATIONAL WEATHER SERVICE: for Safety, for Work, for Fun - FOR LIFE